THY67K UBBB-LTFM
Flight info
| Callsign | THY67K |
|---|---|
| Flight time | 2h 35m |
| Altitude | 28000 |
| Route | RASAM N199 LUSAL/N0447F360 N319 ADEKI/N0452F380 DCT BADIR DCT LAGAS DCT FOQUS DCT SARPI UM10 HAKAN UN644 GUMRU UT315 NUGBA |
| Aircraft | B738/M-SDE2E3FGHIRWXY/LB1 |
Departure
| Time | 2026-05-05 08:11 |
|---|---|
| Airport | Heydar Aliyev International Airport (UBBB) |
Arrival
| Time | 2026-05-05 10:47 |
|---|---|
| Airport | İstanbul Airport (LTFM) |
| Time | Latitude | Longitude | Altitude | Speed | Heading |
|---|---|---|---|---|---|
| 2026-05-05 07:37 | 40.46748 | 50.05249 | 14 ft | 0 kts | 178° |
| 2026-05-05 08:00 | 40.46753 | 50.05249 | 15 ft | 4 kts | 178° |
| 2026-05-05 08:00 | 40.46779 | 50.05247 | 15 ft | 4 kts | 179° |
| 2026-05-05 08:00 | 40.46806 | 50.05245 | 16 ft | 4 kts | 170° |
| 2026-05-05 08:01 | 40.46832 | 50.05235 | 14 ft | 4 kts | 160° |
| 2026-05-05 08:01 | 40.46838 | 50.05232 | 14 ft | 2 kts | 160° |
| 2026-05-05 08:04 | 40.46836 | 50.05233 | 14 ft | 1 kts | 159° |
| 2026-05-05 08:04 | 40.46830 | 50.05244 | 14 ft | 2 kts | 115° |
| 2026-05-05 08:05 | 40.46832 | 50.05267 | 18 ft | 4 kts | 82° |
| 2026-05-05 08:05 | 40.46837 | 50.05312 | 14 ft | 5 kts | 81° |
| 2026-05-05 08:05 | 40.46842 | 50.05360 | 14 ft | 6 kts | 74° |
| 2026-05-05 08:05 | 40.46883 | 50.05391 | 14 ft | 9 kts | 12° |
| 2026-05-05 08:06 | 40.46929 | 50.05443 | 15 ft | 10 kts | 78° |
| 2026-05-05 08:06 | 40.46935 | 50.05532 | 14 ft | 10 kts | 85° |
| 2026-05-05 08:06 | 40.46938 | 50.05619 | 14 ft | 9 kts | 88° |
| 2026-05-05 08:06 | 40.46940 | 50.05718 | 14 ft | 13 kts | 89° |
| 2026-05-05 08:07 | 40.46940 | 50.05835 | 14 ft | 13 kts | 89° |
| 2026-05-05 08:07 | 40.46942 | 50.05950 | 14 ft | 12 kts | 89° |
| 2026-05-05 08:07 | 40.46936 | 50.06060 | 14 ft | 12 kts | 121° |
| 2026-05-05 08:07 | 40.46860 | 50.06092 | 13 ft | 12 kts | 178° |
| 2026-05-05 08:08 | 40.46777 | 50.06092 | 13 ft | 13 kts | 180° |
| 2026-05-05 08:08 | 40.46676 | 50.06093 | 13 ft | 16 kts | 179° |
| 2026-05-05 08:08 | 40.46551 | 50.06095 | 13 ft | 20 kts | 179° |
| 2026-05-05 08:08 | 40.46399 | 50.06098 | 13 ft | 24 kts | 180° |
| 2026-05-05 08:09 | 40.46224 | 50.06100 | 13 ft | 26 kts | 179° |
| 2026-05-05 08:09 | 40.46054 | 50.06103 | 13 ft | 22 kts | 179° |
| 2026-05-05 08:09 | 40.45905 | 50.06105 | 13 ft | 18 kts | 179° |
| 2026-05-05 08:09 | 40.45785 | 50.06106 | 13 ft | 17 kts | 180° |
| 2026-05-05 08:10 | 40.45672 | 50.06125 | 13 ft | 16 kts | 143° |
| 2026-05-05 08:10 | 40.45657 | 50.06265 | 12 ft | 17 kts | 77° |
| 2026-05-05 08:10 | 40.45719 | 50.06323 | 9 ft | 10 kts | 359° |
| 2026-05-05 08:10 | 40.45729 | 50.06323 | 9 ft | 0 kts | 360° |
| 2026-05-05 08:11 | 40.45823 | 50.06322 | 9 ft | 44 kts | 359° |
| 2026-05-05 08:11 | 40.46378 | 50.06311 | 12 ft | 113 kts | 359° |
| 2026-05-05 08:11 | 40.47357 | 50.06276 | 53 ft | 163 kts | 360° |
| 2026-05-05 08:11 | 40.48515 | 50.06330 | 768 ft | 163 kts | 2° |
| 2026-05-05 08:12 | 40.49624 | 50.06407 | 1678 ft | 160 kts | 353° |
| 2026-05-05 08:12 | 40.50756 | 50.06003 | 2105 ft | 178 kts | 350° |
| 2026-05-05 08:12 | 40.52062 | 50.05841 | 2358 ft | 204 kts | 348° |
| 2026-05-05 08:12 | 40.53494 | 50.05331 | 2639 ft | 222 kts | 343° |
| 2026-05-05 08:13 | 40.55082 | 50.04813 | 2906 ft | 246 kts | 346° |
| 2026-05-05 08:13 | 40.56792 | 50.04362 | 3543 ft | 256 kts | 346° |
| 2026-05-05 08:13 | 40.58583 | 50.03890 | 4084 ft | 268 kts | 338° |
| 2026-05-05 08:13 | 40.60171 | 50.02658 | 4698 ft | 264 kts | 307° |
| 2026-05-05 08:14 | 40.61160 | 50.00687 | 5453 ft | 255 kts | 285° |
| 2026-05-05 08:14 | 40.61564 | 49.98451 | 6192 ft | 250 kts | 268° |
| 2026-05-05 08:14 | 40.61616 | 49.96150 | 6866 ft | 253 kts | 265° |
| 2026-05-05 08:14 | 40.61637 | 49.93826 | 7543 ft | 255 kts | 264° |
| 2026-05-05 08:15 | 40.61657 | 49.91489 | 7912 ft | 256 kts | 264° |
| 2026-05-05 08:15 | 40.61680 | 49.89180 | 7955 ft | 254 kts | 264° |
| 2026-05-05 08:15 | 40.61707 | 49.86848 | 7975 ft | 256 kts | 264° |
| 2026-05-05 08:15 | 40.61736 | 49.84497 | 7985 ft | 257 kts | 264° |
| 2026-05-05 08:16 | 40.61765 | 49.82139 | 7989 ft | 258 kts | 264° |
| 2026-05-05 08:16 | 40.61795 | 49.79775 | 7990 ft | 259 kts | 264° |
| 2026-05-05 08:16 | 40.61825 | 49.77407 | 7985 ft | 259 kts | 264° |
| 2026-05-05 08:16 | 40.61833 | 49.75028 | 8110 ft | 261 kts | 263° |
| 2026-05-05 08:17 | 40.61816 | 49.72636 | 8875 ft | 260 kts | 263° |
| 2026-05-05 08:17 | 40.61797 | 49.70269 | 9737 ft | 259 kts | 263° |
| 2026-05-05 08:17 | 40.61774 | 49.67877 | 10317 ft | 267 kts | 263° |
| 2026-05-05 08:17 | 40.61745 | 49.65328 | 10470 ft | 290 kts | 263° |
| 2026-05-05 08:18 | 40.61716 | 49.62626 | 10738 ft | 306 kts | 264° |
| 2026-05-05 08:18 | 40.61691 | 49.59795 | 11317 ft | 312 kts | 264° |
| 2026-05-05 08:18 | 40.61669 | 49.56936 | 12045 ft | 313 kts | 264° |
| 2026-05-05 08:18 | 40.61648 | 49.54060 | 12813 ft | 314 kts | 264° |
| 2026-05-05 08:19 | 40.61624 | 49.51184 | 13577 ft | 315 kts | 264° |
| 2026-05-05 08:19 | 40.61599 | 49.48282 | 14298 ft | 317 kts | 264° |
| 2026-05-05 08:19 | 40.61573 | 49.45380 | 14984 ft | 318 kts | 263° |
| 2026-05-05 08:19 | 40.61545 | 49.42455 | 15638 ft | 321 kts | 263° |
| 2026-05-05 08:20 | 40.61510 | 49.39504 | 16274 ft | 324 kts | 263° |
| 2026-05-05 08:20 | 40.61478 | 49.36526 | 16917 ft | 327 kts | 263° |
| 2026-05-05 08:20 | 40.61451 | 49.33523 | 17593 ft | 330 kts | 262° |
| 2026-05-05 08:20 | 40.61422 | 49.30498 | 18287 ft | 332 kts | 262° |
| 2026-05-05 08:21 | 40.61391 | 49.27454 | 18888 ft | 333 kts | 262° |
| 2026-05-05 08:21 | 40.61356 | 49.24388 | 19428 ft | 337 kts | 262° |
| 2026-05-05 08:21 | 40.61320 | 49.21283 | 19941 ft | 341 kts | 262° |
| 2026-05-05 08:21 | 40.61281 | 49.18191 | 20521 ft | 343 kts | 261° |
| 2026-05-05 08:22 | 40.61225 | 49.15044 | 21092 ft | 345 kts | 261° |
| 2026-05-05 08:22 | 40.61161 | 49.11879 | 21621 ft | 348 kts | 261° |
| 2026-05-05 08:22 | 40.61093 | 49.08681 | 22144 ft | 351 kts | 261° |
| 2026-05-05 08:22 | 40.61024 | 49.05457 | 22667 ft | 354 kts | 261° |
| 2026-05-05 08:23 | 40.60956 | 49.02203 | 23173 ft | 357 kts | 261° |
| 2026-05-05 08:23 | 40.60886 | 48.98923 | 23633 ft | 360 kts | 261° |
| 2026-05-05 08:23 | 40.60817 | 48.95618 | 24093 ft | 361 kts | 261° |
| 2026-05-05 08:23 | 40.60748 | 48.92310 | 24536 ft | 363 kts | 261° |
| 2026-05-05 08:24 | 40.60677 | 48.88983 | 24961 ft | 365 kts | 260° |
| 2026-05-05 08:24 | 40.60605 | 48.85635 | 25385 ft | 367 kts | 261° |
| 2026-05-05 08:24 | 40.60530 | 48.82268 | 25798 ft | 369 kts | 261° |
| 2026-05-05 08:24 | 40.60454 | 48.78882 | 26197 ft | 372 kts | 261° |
| 2026-05-05 08:25 | 40.60376 | 48.75465 | 26582 ft | 374 kts | 261° |
| 2026-05-05 08:25 | 40.60298 | 48.72036 | 26968 ft | 376 kts | 261° |
| 2026-05-05 08:25 | 40.60218 | 48.68583 | 27341 ft | 379 kts | 261° |
| 2026-05-05 08:25 | 40.60137 | 48.65154 | 27709 ft | 380 kts | 261° |
| 2026-05-05 08:26 | 40.60056 | 48.61663 | 28080 ft | 382 kts | 261° |
| 2026-05-05 08:26 | 40.59972 | 48.58156 | 28404 ft | 385 kts | 261° |
| 2026-05-05 08:26 | 40.59884 | 48.54612 | 28733 ft | 387 kts | 261° |
| 2026-05-05 08:26 | 40.59796 | 48.51066 | 29090 ft | 388 kts | 261° |
| 2026-05-05 08:27 | 40.59707 | 48.47516 | 29447 ft | 390 kts | 261° |
| 2026-05-05 08:27 | 40.59617 | 48.43945 | 29782 ft | 392 kts | 261° |
| 2026-05-05 08:27 | 40.59527 | 48.40404 | 30167 ft | 391 kts | 261° |
| 2026-05-05 08:27 | 40.59435 | 48.36820 | 30446 ft | 393 kts | 261° |
| 2026-05-05 08:28 | 40.59340 | 48.33219 | 30702 ft | 395 kts | 261° |
| 2026-05-05 08:28 | 40.59245 | 48.29608 | 31035 ft | 394 kts | 261° |
| 2026-05-05 08:28 | 40.59150 | 48.26011 | 31410 ft | 393 kts | 261° |
| 2026-05-05 08:28 | 40.59053 | 48.22422 | 31755 ft | 392 kts | 261° |
| 2026-05-05 08:29 | 40.58954 | 48.18825 | 32041 ft | 392 kts | 261° |
| 2026-05-05 08:29 | 40.58855 | 48.15239 | 32314 ft | 393 kts | 261° |
| 2026-05-05 08:29 | 40.58758 | 48.11651 | 32660 ft | 392 kts | 261° |
| 2026-05-05 08:30 | 40.58566 | 48.04500 | 33351 ft | 390 kts | 261° |
| 2026-05-05 08:30 | 40.58476 | 48.00937 | 33707 ft | 390 kts | 263° |
| 2026-05-05 08:30 | 40.58795 | 47.97348 | 33941 ft | 403 kts | 276° |
| 2026-05-05 08:30 | 40.59672 | 47.93802 | 34203 ft | 413 kts | 283° |
| 2026-05-05 08:31 | 40.61001 | 47.90390 | 34423 ft | 427 kts | 295° |
| 2026-05-05 08:31 | 40.62814 | 47.87236 | 34608 ft | 434 kts | 299° |
| 2026-05-05 08:31 | 40.64702 | 47.84182 | 34839 ft | 435 kts | 300° |
| 2026-05-05 08:31 | 40.66629 | 47.81106 | 35075 ft | 435 kts | 300° |
| 2026-05-05 08:32 | 40.68554 | 47.78012 | 35283 ft | 436 kts | 300° |
| 2026-05-05 08:32 | 40.70464 | 47.74905 | 35478 ft | 436 kts | 299° |
| 2026-05-05 08:32 | 40.71720 | 47.72842 | 35597 ft | 436 kts | 299° |
| 2026-05-05 08:32 | 40.74252 | 47.68656 | 35899 ft | 435 kts | 299° |
| 2026-05-05 08:33 | 40.75500 | 47.66586 | 36024 ft | 435 kts | 299° |
| 2026-05-05 08:33 | 40.77390 | 47.63444 | 36201 ft | 436 kts | 299° |
| 2026-05-05 08:33 | 40.79271 | 47.60314 | 36395 ft | 436 kts | 299° |
| 2026-05-05 08:33 | 40.81159 | 47.57170 | 36581 ft | 436 kts | 299° |
| 2026-05-05 08:34 | 40.83044 | 47.54031 | 36761 ft | 436 kts | 300° |
| 2026-05-05 08:34 | 40.84928 | 47.50890 | 36991 ft | 436 kts | 300° |
| 2026-05-05 08:34 | 40.86813 | 47.47739 | 37152 ft | 437 kts | 300° |
| 2026-05-05 08:34 | 40.88697 | 47.44580 | 37335 ft | 437 kts | 300° |
| 2026-05-05 08:35 | 40.90578 | 47.41423 | 37544 ft | 437 kts | 300° |
| 2026-05-05 08:35 | 40.92435 | 47.38302 | 37726 ft | 437 kts | 300° |
| 2026-05-05 08:35 | 40.94313 | 47.35142 | 37880 ft | 438 kts | 300° |
| 2026-05-05 08:36 | 40.98089 | 47.28775 | 37953 ft | 442 kts | 300° |
| 2026-05-05 08:36 | 41.01879 | 47.22381 | 37970 ft | 439 kts | 300° |
| 2026-05-05 08:37 | 41.05646 | 47.16013 | 37957 ft | 438 kts | 300° |
| 2026-05-05 08:37 | 41.09377 | 47.09689 | 37994 ft | 438 kts | 300° |
| 2026-05-05 08:38 | 41.13122 | 47.03325 | 37975 ft | 438 kts | 300° |
| 2026-05-05 08:38 | 41.16867 | 46.96950 | 37979 ft | 437 kts | 300° |
| 2026-05-05 08:39 | 41.20607 | 46.90570 | 37974 ft | 438 kts | 299° |
| 2026-05-05 08:39 | 41.24349 | 46.84172 | 37985 ft | 439 kts | 300° |
| 2026-05-05 08:40 | 41.28028 | 46.77696 | 37980 ft | 434 kts | 293° |
| 2026-05-05 08:40 | 41.30374 | 46.70523 | 37988 ft | 418 kts | 276° |
| 2026-05-05 08:41 | 41.31455 | 46.62981 | 37983 ft | 415 kts | 273° |
| 2026-05-05 08:41 | 41.32466 | 46.55386 | 37984 ft | 418 kts | 273° |
| 2026-05-05 08:42 | 41.33501 | 46.47765 | 37986 ft | 420 kts | 274° |
| 2026-05-05 08:42 | 41.34553 | 46.40105 | 37983 ft | 422 kts | 274° |
| 2026-05-05 08:43 | 41.35610 | 46.32411 | 37973 ft | 422 kts | 274° |
| 2026-05-05 08:43 | 41.36663 | 46.24715 | 37970 ft | 423 kts | 274° |
| 2026-05-05 08:44 | 41.37704 | 46.17062 | 37970 ft | 423 kts | 274° |
| 2026-05-05 08:44 | 41.38746 | 46.09354 | 37977 ft | 423 kts | 274° |
| 2026-05-05 08:45 | 41.39785 | 46.01629 | 37956 ft | 423 kts | 274° |
| 2026-05-05 08:45 | 41.40818 | 45.93913 | 37965 ft | 422 kts | 274° |
| 2026-05-05 08:46 | 41.41841 | 45.86222 | 37947 ft | 421 kts | 274° |
| 2026-05-05 08:46 | 41.42860 | 45.78525 | 37949 ft | 421 kts | 274° |
| 2026-05-05 08:47 | 41.43865 | 45.70889 | 37956 ft | 420 kts | 274° |
| 2026-05-05 08:47 | 41.44872 | 45.63198 | 37955 ft | 421 kts | 274° |
| 2026-05-05 08:48 | 41.45873 | 45.55507 | 37931 ft | 421 kts | 274° |
| 2026-05-05 08:48 | 41.46869 | 45.47817 | 37937 ft | 421 kts | 274° |
| 2026-05-05 08:49 | 41.47865 | 45.40097 | 37934 ft | 423 kts | 274° |
| 2026-05-05 08:49 | 41.48737 | 45.32404 | 37937 ft | 421 kts | 271° |
| 2026-05-05 08:50 | 41.49359 | 45.24621 | 37935 ft | 422 kts | 270° |
| 2026-05-05 08:50 | 41.49958 | 45.16806 | 37935 ft | 424 kts | 270° |
| 2026-05-05 08:51 | 41.50578 | 45.08964 | 37925 ft | 425 kts | 270° |
| 2026-05-05 08:51 | 41.51208 | 45.01105 | 37932 ft | 427 kts | 271° |
| 2026-05-05 08:52 | 41.51840 | 44.93204 | 37936 ft | 429 kts | 271° |
| 2026-05-05 08:52 | 41.52468 | 44.85280 | 37939 ft | 430 kts | 271° |
| 2026-05-05 08:53 | 41.53092 | 44.77330 | 37935 ft | 431 kts | 271° |
| 2026-05-05 08:53 | 41.53713 | 44.69359 | 37927 ft | 432 kts | 270° |
| 2026-05-05 08:54 | 41.54323 | 44.61439 | 37935 ft | 432 kts | 270° |
| 2026-05-05 08:54 | 41.54932 | 44.53462 | 37929 ft | 432 kts | 270° |
| 2026-05-05 08:55 | 41.55536 | 44.45487 | 37926 ft | 431 kts | 270° |
| 2026-05-05 08:55 | 41.56133 | 44.37524 | 37928 ft | 431 kts | 270° |
| 2026-05-05 08:56 | 41.56726 | 44.29555 | 37919 ft | 430 kts | 270° |
| 2026-05-05 08:56 | 41.57923 | 44.21727 | 37941 ft | 439 kts | 284° |
| 2026-05-05 08:57 | 41.60649 | 44.14308 | 37934 ft | 446 kts | 293° |
| 2026-05-05 08:57 | 41.63663 | 44.07058 | 37919 ft | 446 kts | 293° |
| 2026-05-05 08:58 | 41.66650 | 43.99801 | 37923 ft | 445 kts | 293° |
| 2026-05-05 08:58 | 41.69607 | 43.92513 | 37933 ft | 446 kts | 293° |
| 2026-05-05 08:59 | 41.72533 | 43.85249 | 37919 ft | 446 kts | 293° |
| 2026-05-05 08:59 | 41.75475 | 43.77927 | 37919 ft | 447 kts | 292° |
| 2026-05-05 09:00 | 41.78422 | 43.70574 | 37921 ft | 448 kts | 293° |
| 2026-05-05 09:00 | 41.81375 | 43.63190 | 37913 ft | 449 kts | 293° |
| 2026-05-05 09:01 | 41.84326 | 43.55795 | 37923 ft | 451 kts | 293° |
| 2026-05-05 09:01 | 41.87282 | 43.48364 | 37915 ft | 452 kts | 293° |
| 2026-05-05 09:02 | 41.90244 | 43.40901 | 37920 ft | 453 kts | 293° |
| 2026-05-05 09:02 | 41.93201 | 43.33434 | 37916 ft | 453 kts | 293° |
| 2026-05-05 09:03 | 41.96152 | 43.25962 | 37911 ft | 452 kts | 293° |
| 2026-05-05 09:03 | 41.99080 | 43.18529 | 37902 ft | 452 kts | 293° |
| 2026-05-05 09:04 | 42.02012 | 43.11067 | 37914 ft | 451 kts | 293° |
| 2026-05-05 09:04 | 42.04847 | 43.03551 | 37898 ft | 446 kts | 283° |
| 2026-05-05 09:04 | 42.05372 | 42.99524 | 37962 ft | 433 kts | 266° |
| 2026-05-05 09:05 | 42.05091 | 42.95520 | 37904 ft | 428 kts | 252° |
| 2026-05-05 09:05 | 42.02935 | 42.88146 | 37918 ft | 423 kts | 243° |
| 2026-05-05 09:06 | 42.00490 | 42.80929 | 37932 ft | 425 kts | 243° |
| 2026-05-05 09:06 | 41.98055 | 42.73677 | 37938 ft | 426 kts | 243° |
| 2026-05-05 09:07 | 41.95658 | 42.66423 | 37935 ft | 427 kts | 243° |
| 2026-05-05 09:07 | 41.93256 | 42.59122 | 37951 ft | 428 kts | 243° |
| 2026-05-05 09:08 | 41.90844 | 42.51802 | 37941 ft | 429 kts | 243° |
| 2026-05-05 09:08 | 41.88420 | 42.44467 | 37947 ft | 430 kts | 243° |
| 2026-05-05 09:09 | 41.85987 | 42.37125 | 37944 ft | 431 kts | 243° |
| 2026-05-05 09:09 | 41.83543 | 42.29772 | 37942 ft | 432 kts | 243° |
| 2026-05-05 09:10 | 41.81092 | 42.22417 | 37942 ft | 432 kts | 243° |
| 2026-05-05 09:10 | 41.78635 | 42.15061 | 37949 ft | 432 kts | 243° |
| 2026-05-05 09:11 | 41.76189 | 42.07760 | 37952 ft | 432 kts | 243° |
| 2026-05-05 09:11 | 41.73724 | 42.00420 | 37964 ft | 432 kts | 243° |
| 2026-05-05 09:12 | 41.71256 | 41.93092 | 37967 ft | 431 kts | 243° |
| 2026-05-05 09:12 | 41.68789 | 41.85785 | 37989 ft | 431 kts | 243° |
| 2026-05-05 09:13 | 41.66317 | 41.78486 | 37990 ft | 430 kts | 243° |
| 2026-05-05 09:13 | 41.63844 | 41.71198 | 37995 ft | 430 kts | 243° |
| 2026-05-05 09:14 | 41.61370 | 41.63927 | 37996 ft | 430 kts | 243° |
| 2026-05-05 09:14 | 41.58906 | 41.56704 | 37992 ft | 429 kts | 243° |
| 2026-05-05 09:15 | 41.56451 | 41.49421 | 37989 ft | 431 kts | 247° |
| 2026-05-05 09:15 | 41.55207 | 41.41570 | 38003 ft | 437 kts | 263° |
| 2026-05-05 09:16 | 41.55456 | 41.33412 | 37997 ft | 441 kts | 271° |
| 2026-05-05 09:16 | 41.55991 | 41.25245 | 37991 ft | 441 kts | 271° |
| 2026-05-05 09:17 | 41.56495 | 41.17077 | 37981 ft | 441 kts | 271° |
| 2026-05-05 09:17 | 41.56961 | 41.08900 | 37981 ft | 441 kts | 271° |
| 2026-05-05 09:18 | 41.57412 | 41.00722 | 37994 ft | 441 kts | 270° |
| 2026-05-05 09:18 | 41.57854 | 40.92597 | 37979 ft | 441 kts | 270° |
| 2026-05-05 09:19 | 41.58294 | 40.84420 | 37984 ft | 441 kts | 270° |
| 2026-05-05 09:19 | 41.58729 | 40.76243 | 37988 ft | 441 kts | 270° |
| 2026-05-05 09:20 | 41.59159 | 40.68050 | 37981 ft | 441 kts | 270° |
| 2026-05-05 09:20 | 41.59583 | 40.59853 | 37996 ft | 441 kts | 270° |
| 2026-05-05 09:21 | 41.59995 | 40.51662 | 37985 ft | 442 kts | 270° |
| 2026-05-05 09:21 | 41.60400 | 40.43517 | 37988 ft | 442 kts | 270° |
| 2026-05-05 09:22 | 41.60802 | 40.35317 | 37986 ft | 442 kts | 270° |
| 2026-05-05 09:22 | 41.61199 | 40.27113 | 37990 ft | 443 kts | 270° |
| 2026-05-05 09:23 | 41.61591 | 40.18893 | 37991 ft | 443 kts | 270° |
| 2026-05-05 09:23 | 41.61913 | 40.12060 | 37987 ft | 443 kts | 270° |
| 2026-05-05 09:24 | 41.62294 | 40.03837 | 37985 ft | 444 kts | 270° |
| 2026-05-05 09:24 | 41.62670 | 39.95603 | 37994 ft | 444 kts | 270° |
| 2026-05-05 09:25 | 41.63041 | 39.87356 | 37995 ft | 444 kts | 270° |
| 2026-05-05 09:25 | 41.63406 | 39.79108 | 38012 ft | 445 kts | 270° |
| 2026-05-05 09:26 | 41.63765 | 39.70838 | 38001 ft | 445 kts | 270° |
| 2026-05-05 09:26 | 41.64118 | 39.62618 | 37998 ft | 446 kts | 270° |
| 2026-05-05 09:27 | 41.64468 | 39.54332 | 38002 ft | 446 kts | 270° |
| 2026-05-05 09:27 | 41.64815 | 39.46044 | 38002 ft | 446 kts | 270° |
| 2026-05-05 09:28 | 41.65158 | 39.37735 | 38013 ft | 447 kts | 270° |
| 2026-05-05 09:28 | 41.65495 | 39.29428 | 38003 ft | 448 kts | 270° |
| 2026-05-05 09:29 | 41.65825 | 39.21161 | 38003 ft | 448 kts | 270° |
| 2026-05-05 09:29 | 41.66151 | 39.12832 | 38002 ft | 448 kts | 270° |
| 2026-05-05 09:30 | 41.66471 | 39.04497 | 37998 ft | 449 kts | 270° |
| 2026-05-05 09:30 | 41.66785 | 38.96153 | 38009 ft | 449 kts | 270° |
| 2026-05-05 09:31 | 41.67093 | 38.87814 | 37998 ft | 449 kts | 270° |
| 2026-05-05 09:31 | 41.67396 | 38.79449 | 37997 ft | 450 kts | 270° |
| 2026-05-05 09:32 | 41.67693 | 38.71088 | 37999 ft | 450 kts | 270° |
| 2026-05-05 09:32 | 41.67983 | 38.62760 | 38000 ft | 450 kts | 270° |
| 2026-05-05 09:33 | 41.68268 | 38.54387 | 38003 ft | 451 kts | 270° |
| 2026-05-05 09:33 | 41.68547 | 38.46008 | 38001 ft | 451 kts | 270° |
| 2026-05-05 09:34 | 41.68820 | 38.37613 | 38013 ft | 451 kts | 270° |
| 2026-05-05 09:34 | 41.69088 | 38.29205 | 38001 ft | 452 kts | 270° |
| 2026-05-05 09:35 | 41.69349 | 38.20805 | 38000 ft | 452 kts | 270° |
| 2026-05-05 09:35 | 41.69730 | 38.08197 | 38006 ft | 452 kts | 270° |
| 2026-05-05 09:36 | 41.69975 | 37.99841 | 38009 ft | 452 kts | 270° |
| 2026-05-05 09:36 | 41.70215 | 37.91428 | 38012 ft | 452 kts | 270° |
| 2026-05-05 09:37 | 41.70450 | 37.83015 | 38013 ft | 452 kts | 270° |
| 2026-05-05 09:37 | 41.70678 | 37.74595 | 38015 ft | 452 kts | 270° |
| 2026-05-05 09:38 | 41.70901 | 37.66181 | 38013 ft | 452 kts | 270° |
| 2026-05-05 09:38 | 41.71112 | 37.57768 | 38013 ft | 452 kts | 270° |
| 2026-05-05 09:39 | 41.71314 | 37.49358 | 38013 ft | 452 kts | 270° |
| 2026-05-05 09:39 | 41.71512 | 37.40943 | 38014 ft | 452 kts | 270° |
| 2026-05-05 09:40 | 41.71703 | 37.32538 | 38014 ft | 452 kts | 270° |
| 2026-05-05 09:40 | 41.71887 | 37.24190 | 38010 ft | 452 kts | 270° |
| 2026-05-05 09:41 | 41.72067 | 37.15785 | 38014 ft | 452 kts | 270° |
| 2026-05-05 09:41 | 41.72241 | 37.07357 | 38011 ft | 452 kts | 270° |
| 2026-05-05 09:42 | 41.72408 | 36.98953 | 38011 ft | 452 kts | 270° |
| 2026-05-05 09:42 | 41.72569 | 36.90538 | 38014 ft | 452 kts | 270° |
| 2026-05-05 09:43 | 41.72725 | 36.82113 | 38011 ft | 453 kts | 271° |
| 2026-05-05 09:43 | 41.72873 | 36.73721 | 38014 ft | 453 kts | 270° |
| 2026-05-05 09:44 | 41.73016 | 36.65280 | 38021 ft | 454 kts | 271° |
| 2026-05-05 09:44 | 41.73154 | 36.56819 | 38015 ft | 455 kts | 270° |
| 2026-05-05 09:45 | 41.73285 | 36.48339 | 38032 ft | 456 kts | 271° |
| 2026-05-05 09:45 | 41.73411 | 36.39821 | 38015 ft | 457 kts | 271° |
| 2026-05-05 09:46 | 41.73531 | 36.31302 | 38016 ft | 456 kts | 271° |
| 2026-05-05 09:46 | 41.73644 | 36.22812 | 38015 ft | 456 kts | 271° |
| 2026-05-05 09:47 | 41.73750 | 36.14322 | 38012 ft | 456 kts | 271° |
| 2026-05-05 09:47 | 41.73851 | 36.05831 | 38006 ft | 456 kts | 271° |
| 2026-05-05 09:48 | 41.73944 | 35.97413 | 38007 ft | 455 kts | 271° |
| 2026-05-05 09:48 | 41.74031 | 35.88954 | 38006 ft | 454 kts | 271° |
| 2026-05-05 09:49 | 41.74113 | 35.80504 | 38009 ft | 453 kts | 271° |
| 2026-05-05 09:49 | 41.74188 | 35.72069 | 38008 ft | 452 kts | 271° |
| 2026-05-05 09:50 | 41.74256 | 35.63655 | 38006 ft | 451 kts | 271° |
| 2026-05-05 09:50 | 41.74319 | 35.55253 | 38010 ft | 451 kts | 271° |
| 2026-05-05 09:51 | 41.74375 | 35.46903 | 38007 ft | 451 kts | 271° |
| 2026-05-05 09:51 | 41.74425 | 35.38503 | 38013 ft | 452 kts | 271° |
| 2026-05-05 09:52 | 41.74469 | 35.30083 | 38011 ft | 452 kts | 271° |
| 2026-05-05 09:52 | 41.74508 | 35.21646 | 37998 ft | 454 kts | 271° |
| 2026-05-05 09:53 | 41.74540 | 35.13176 | 38002 ft | 455 kts | 271° |
| 2026-05-05 09:53 | 41.74566 | 35.04683 | 38006 ft | 457 kts | 271° |
| 2026-05-05 09:54 | 41.74585 | 34.96215 | 38001 ft | 458 kts | 270° |
| 2026-05-05 09:54 | 41.74599 | 34.87655 | 38002 ft | 460 kts | 271° |
| 2026-05-05 09:55 | 41.74606 | 34.79078 | 37997 ft | 461 kts | 270° |
| 2026-05-05 09:55 | 41.74607 | 34.70502 | 37992 ft | 460 kts | 270° |
| 2026-05-05 09:56 | 41.74603 | 34.61930 | 37994 ft | 459 kts | 270° |
| 2026-05-05 09:56 | 41.74592 | 34.53394 | 37982 ft | 457 kts | 270° |
| 2026-05-05 09:57 | 41.74576 | 34.44906 | 37989 ft | 455 kts | 270° |
| 2026-05-05 09:57 | 41.74554 | 34.36507 | 37989 ft | 452 kts | 271° |
| 2026-05-05 09:58 | 41.74527 | 34.28090 | 37981 ft | 451 kts | 271° |
| 2026-05-05 09:58 | 41.74493 | 34.19704 | 37994 ft | 449 kts | 271° |
| 2026-05-05 09:59 | 41.74454 | 34.11396 | 37988 ft | 449 kts | 271° |
| 2026-05-05 09:59 | 41.74409 | 34.03042 | 37999 ft | 448 kts | 271° |
| 2026-05-05 10:00 | 41.74358 | 33.94687 | 37999 ft | 449 kts | 271° |
| 2026-05-05 10:00 | 41.74300 | 33.86312 | 38008 ft | 450 kts | 271° |
| 2026-05-05 10:01 | 41.74237 | 33.77921 | 38004 ft | 452 kts | 271° |
| 2026-05-05 10:01 | 41.74167 | 33.69489 | 38001 ft | 453 kts | 271° |
| 2026-05-05 10:02 | 41.74090 | 33.61035 | 38008 ft | 455 kts | 271° |
| 2026-05-05 10:02 | 41.74007 | 33.52560 | 37994 ft | 455 kts | 271° |
| 2026-05-05 10:03 | 41.73918 | 33.44127 | 38006 ft | 456 kts | 271° |
| 2026-05-05 10:03 | 41.73823 | 33.35649 | 38008 ft | 455 kts | 271° |
| 2026-05-05 10:04 | 41.73721 | 33.27170 | 38019 ft | 455 kts | 271° |
| 2026-05-05 10:04 | 41.73586 | 33.18704 | 38020 ft | 455 kts | 269° |
| 2026-05-05 10:05 | 41.73194 | 33.10257 | 38018 ft | 454 kts | 268° |
| 2026-05-05 10:05 | 41.72736 | 33.01833 | 38015 ft | 453 kts | 268° |
| 2026-05-05 10:06 | 41.72301 | 32.93439 | 38029 ft | 452 kts | 268° |
| 2026-05-05 10:06 | 41.71885 | 32.85051 | 38016 ft | 451 kts | 268° |
| 2026-05-05 10:07 | 41.71470 | 32.76669 | 38032 ft | 450 kts | 268° |
| 2026-05-05 10:07 | 41.71051 | 32.68311 | 38025 ft | 450 kts | 268° |
| 2026-05-05 10:08 | 41.70625 | 32.59958 | 38016 ft | 449 kts | 268° |
| 2026-05-05 10:08 | 41.70195 | 32.51661 | 38025 ft | 449 kts | 268° |
| 2026-05-05 10:09 | 41.69758 | 32.43326 | 38022 ft | 449 kts | 268° |
| 2026-05-05 10:09 | 41.69314 | 32.35000 | 38015 ft | 448 kts | 268° |
| 2026-05-05 10:10 | 41.68865 | 32.26676 | 38012 ft | 447 kts | 268° |
| 2026-05-05 10:10 | 41.68411 | 32.18389 | 38016 ft | 446 kts | 268° |
| 2026-05-05 10:11 | 41.67953 | 32.10118 | 38019 ft | 445 kts | 268° |
| 2026-05-05 10:11 | 41.67568 | 32.03257 | 38021 ft | 444 kts | 268° |
| 2026-05-05 10:12 | 41.67024 | 31.93681 | 38014 ft | 443 kts | 268° |
| 2026-05-05 10:12 | 41.66632 | 31.86864 | 38026 ft | 442 kts | 268° |
| 2026-05-05 10:13 | 41.66154 | 31.78657 | 38013 ft | 442 kts | 268° |
| 2026-05-05 10:13 | 41.65673 | 31.70478 | 38018 ft | 440 kts | 268° |
| 2026-05-05 10:14 | 41.65429 | 31.66377 | 37629 ft | 446 kts | 268° |
| 2026-05-05 10:14 | 41.65183 | 31.62254 | 37169 ft | 443 kts | 268° |
| 2026-05-05 10:14 | 41.64935 | 31.58151 | 36761 ft | 439 kts | 268° |
| 2026-05-05 10:14 | 41.64689 | 31.54113 | 36340 ft | 435 kts | 269° |
| 2026-05-05 10:15 | 41.64444 | 31.50096 | 35945 ft | 431 kts | 269° |
| 2026-05-05 10:15 | 41.64203 | 31.46163 | 35536 ft | 428 kts | 269° |
| 2026-05-05 10:15 | 41.63956 | 31.42161 | 35104 ft | 425 kts | 269° |
| 2026-05-05 10:15 | 41.63716 | 31.38288 | 34714 ft | 422 kts | 269° |
| 2026-05-05 10:16 | 41.63474 | 31.34389 | 34326 ft | 419 kts | 270° |
| 2026-05-05 10:16 | 41.63231 | 31.30517 | 33886 ft | 418 kts | 270° |
| 2026-05-05 10:16 | 41.62990 | 31.26675 | 33448 ft | 415 kts | 270° |
| 2026-05-05 10:16 | 41.62747 | 31.22840 | 33034 ft | 412 kts | 270° |
| 2026-05-05 10:17 | 41.62506 | 31.19044 | 32641 ft | 408 kts | 270° |
| 2026-05-05 10:17 | 41.62265 | 31.15273 | 32247 ft | 405 kts | 270° |
| 2026-05-05 10:17 | 41.62024 | 31.11538 | 31870 ft | 402 kts | 270° |
| 2026-05-05 10:17 | 41.61785 | 31.07834 | 31490 ft | 399 kts | 270° |
| 2026-05-05 10:18 | 41.61546 | 31.04154 | 31122 ft | 396 kts | 270° |
| 2026-05-05 10:18 | 41.61308 | 31.00490 | 30728 ft | 393 kts | 269° |
| 2026-05-05 10:18 | 41.61071 | 30.96868 | 30371 ft | 390 kts | 269° |
| 2026-05-05 10:18 | 41.60834 | 30.93267 | 29996 ft | 387 kts | 269° |
| 2026-05-05 10:19 | 41.60597 | 30.89694 | 29580 ft | 384 kts | 269° |
| 2026-05-05 10:19 | 41.60362 | 30.86153 | 29175 ft | 381 kts | 269° |
| 2026-05-05 10:19 | 41.60128 | 30.82645 | 28818 ft | 377 kts | 269° |
| 2026-05-05 10:19 | 41.59898 | 30.79219 | 28428 ft | 374 kts | 269° |
| 2026-05-05 10:20 | 41.59667 | 30.75778 | 28059 ft | 370 kts | 269° |
| 2026-05-05 10:20 | 41.59437 | 30.72367 | 27684 ft | 367 kts | 269° |
| 2026-05-05 10:20 | 41.59206 | 30.68977 | 27313 ft | 365 kts | 269° |
| 2026-05-05 10:20 | 41.59050 | 30.65615 | 26937 ft | 360 kts | 274° |
| 2026-05-05 10:21 | 41.59135 | 30.62288 | 26574 ft | 356 kts | 276° |
| 2026-05-05 10:21 | 41.58946 | 30.58972 | 26044 ft | 364 kts | 260° |
| 2026-05-05 10:21 | 41.58149 | 30.55730 | 25590 ft | 368 kts | 249° |
| 2026-05-05 10:21 | 41.56967 | 30.52705 | 25268 ft | 366 kts | 244° |
| 2026-05-05 10:22 | 41.55711 | 30.49758 | 24907 ft | 363 kts | 243° |
| 2026-05-05 10:22 | 41.54450 | 30.46837 | 24541 ft | 362 kts | 243° |
| 2026-05-05 10:22 | 41.53197 | 30.43935 | 24164 ft | 360 kts | 243° |
| 2026-05-05 10:22 | 41.51954 | 30.41044 | 23828 ft | 358 kts | 243° |
| 2026-05-05 10:23 | 41.50723 | 30.38171 | 23465 ft | 355 kts | 243° |
| 2026-05-05 10:23 | 41.49520 | 30.35354 | 23053 ft | 353 kts | 243° |
| 2026-05-05 10:23 | 41.48309 | 30.32513 | 22639 ft | 352 kts | 243° |
| 2026-05-05 10:23 | 41.47102 | 30.29679 | 22227 ft | 350 kts | 243° |
| 2026-05-05 10:24 | 41.45901 | 30.26859 | 21839 ft | 349 kts | 243° |
| 2026-05-05 10:24 | 41.44707 | 30.24059 | 21475 ft | 347 kts | 243° |
| 2026-05-05 10:24 | 41.43517 | 30.21270 | 21101 ft | 345 kts | 243° |
| 2026-05-05 10:24 | 41.42330 | 30.18488 | 20709 ft | 344 kts | 243° |
| 2026-05-05 10:25 | 41.41146 | 30.15717 | 20321 ft | 343 kts | 242° |
| 2026-05-05 10:25 | 41.39970 | 30.12967 | 19993 ft | 340 kts | 242° |
| 2026-05-05 10:25 | 41.38799 | 30.10232 | 19642 ft | 339 kts | 242° |
| 2026-05-05 10:25 | 41.37630 | 30.07502 | 19272 ft | 338 kts | 242° |
| 2026-05-05 10:26 | 41.36466 | 30.04788 | 18908 ft | 338 kts | 242° |
| 2026-05-05 10:26 | 41.35301 | 30.02073 | 18540 ft | 337 kts | 242° |
| 2026-05-05 10:26 | 41.34140 | 29.99371 | 18188 ft | 335 kts | 242° |
| 2026-05-05 10:26 | 41.32984 | 29.96681 | 17839 ft | 333 kts | 242° |
| 2026-05-05 10:27 | 41.31837 | 29.94018 | 17486 ft | 331 kts | 242° |
| 2026-05-05 10:27 | 41.30695 | 29.91367 | 17122 ft | 329 kts | 242° |
| 2026-05-05 10:27 | 41.29559 | 29.88733 | 16759 ft | 328 kts | 242° |
| 2026-05-05 10:27 | 41.28444 | 29.86148 | 16428 ft | 325 kts | 242° |
| 2026-05-05 10:28 | 41.27307 | 29.83517 | 16092 ft | 323 kts | 242° |
| 2026-05-05 10:28 | 41.26203 | 29.80961 | 15737 ft | 322 kts | 242° |
| 2026-05-05 10:28 | 41.25089 | 29.78386 | 15353 ft | 322 kts | 242° |
| 2026-05-05 10:28 | 41.23975 | 29.75813 | 15039 ft | 321 kts | 242° |
| 2026-05-05 10:29 | 41.22861 | 29.73244 | 14779 ft | 319 kts | 242° |
| 2026-05-05 10:29 | 41.21759 | 29.70701 | 14481 ft | 317 kts | 243° |
| 2026-05-05 10:29 | 41.20659 | 29.68168 | 14177 ft | 316 kts | 243° |
| 2026-05-05 10:29 | 41.19559 | 29.65636 | 13884 ft | 315 kts | 243° |
| 2026-05-05 10:30 | 41.18465 | 29.63119 | 13561 ft | 313 kts | 243° |
| 2026-05-05 10:30 | 41.17376 | 29.60617 | 13252 ft | 312 kts | 243° |
| 2026-05-05 10:30 | 41.16288 | 29.58120 | 12953 ft | 311 kts | 243° |
| 2026-05-05 10:30 | 41.15211 | 29.55649 | 12643 ft | 309 kts | 243° |
| 2026-05-05 10:31 | 41.14148 | 29.53212 | 12336 ft | 308 kts | 243° |
| 2026-05-05 10:31 | 41.13077 | 29.50759 | 12039 ft | 306 kts | 243° |
| 2026-05-05 10:31 | 41.12010 | 29.48318 | 11742 ft | 305 kts | 243° |
| 2026-05-05 10:31 | 41.10949 | 29.45891 | 11447 ft | 304 kts | 243° |
| 2026-05-05 10:32 | 41.09891 | 29.43472 | 11163 ft | 302 kts | 243° |
| 2026-05-05 10:32 | 41.08842 | 29.41080 | 10996 ft | 296 kts | 243° |
| 2026-05-05 10:32 | 41.07817 | 29.38743 | 10864 ft | 289 kts | 243° |
| 2026-05-05 10:32 | 41.06807 | 29.36441 | 10598 ft | 289 kts | 243° |
| 2026-05-05 10:33 | 41.05801 | 29.34147 | 10351 ft | 287 kts | 243° |
| 2026-05-05 10:33 | 41.04801 | 29.31869 | 10126 ft | 285 kts | 243° |
| 2026-05-05 10:33 | 41.03805 | 29.29604 | 9847 ft | 285 kts | 243° |
| 2026-05-05 10:33 | 41.02823 | 29.27371 | 9554 ft | 284 kts | 243° |
| 2026-05-05 10:34 | 41.01831 | 29.25118 | 9289 ft | 282 kts | 243° |
| 2026-05-05 10:34 | 41.00844 | 29.22878 | 8971 ft | 283 kts | 243° |
| 2026-05-05 10:34 | 40.99850 | 29.20622 | 8680 ft | 282 kts | 243° |
| 2026-05-05 10:34 | 40.98865 | 29.18389 | 8442 ft | 280 kts | 243° |
| 2026-05-05 10:35 | 40.97886 | 29.16172 | 8217 ft | 279 kts | 243° |
| 2026-05-05 10:35 | 40.96912 | 29.13968 | 8061 ft | 277 kts | 243° |
| 2026-05-05 10:35 | 40.95938 | 29.11762 | 7889 ft | 277 kts | 243° |
| 2026-05-05 10:35 | 40.94964 | 29.09561 | 7805 ft | 276 kts | 243° |
| 2026-05-05 10:36 | 40.93998 | 29.07379 | 7652 ft | 273 kts | 243° |
| 2026-05-05 10:36 | 40.93052 | 29.05245 | 7446 ft | 270 kts | 243° |
| 2026-05-05 10:36 | 40.92102 | 29.03108 | 7359 ft | 262 kts | 243° |
| 2026-05-05 10:36 | 40.91336 | 29.01020 | 7230 ft | 250 kts | 262° |
| 2026-05-05 10:37 | 40.91304 | 28.98809 | 7044 ft | 237 kts | 281° |
| 2026-05-05 10:37 | 40.91504 | 28.96653 | 6707 ft | 237 kts | 281° |
| 2026-05-05 10:37 | 40.91705 | 28.94493 | 6381 ft | 236 kts | 281° |
| 2026-05-05 10:37 | 40.91900 | 28.92340 | 6042 ft | 235 kts | 280° |
| 2026-05-05 10:38 | 40.92091 | 28.90193 | 5715 ft | 235 kts | 280° |
| 2026-05-05 10:38 | 40.92280 | 28.88053 | 5415 ft | 233 kts | 280° |
| 2026-05-05 10:38 | 40.92465 | 28.85935 | 5102 ft | 232 kts | 280° |
| 2026-05-05 10:38 | 40.92650 | 28.83814 | 4751 ft | 232 kts | 280° |
| 2026-05-05 10:39 | 40.92834 | 28.81694 | 4430 ft | 231 kts | 280° |
| 2026-05-05 10:39 | 40.93309 | 28.79734 | 4205 ft | 217 kts | 311° |
| 2026-05-05 10:39 | 40.94412 | 28.78453 | 4109 ft | 212 kts | 329° |
| 2026-05-05 10:39 | 40.95673 | 28.77435 | 4027 ft | 212 kts | 331° |
| 2026-05-05 10:40 | 40.96951 | 28.76504 | 3999 ft | 206 kts | 341° |
| 2026-05-05 10:40 | 40.98317 | 28.76274 | 4004 ft | 193 kts | 0° |
| 2026-05-05 10:40 | 40.99640 | 28.76233 | 3987 ft | 187 kts | 358° |
| 2026-05-05 10:40 | 41.00898 | 28.76185 | 3972 ft | 175 kts | 359° |
| 2026-05-05 10:41 | 41.02098 | 28.76151 | 4011 ft | 172 kts | 359° |
| 2026-05-05 10:41 | 41.03309 | 28.76123 | 4022 ft | 176 kts | 359° |
| 2026-05-05 10:41 | 41.04550 | 28.76097 | 4006 ft | 177 kts | 359° |
| 2026-05-05 10:41 | 41.05748 | 28.76073 | 3993 ft | 167 kts | 359° |
| 2026-05-05 10:42 | 41.08041 | 28.76028 | 3909 ft | 169 kts | 359° |
| 2026-05-05 10:42 | 41.09235 | 28.76004 | 3688 ft | 172 kts | 359° |
| 2026-05-05 10:42 | 41.10424 | 28.75980 | 3461 ft | 170 kts | 359° |
| 2026-05-05 10:43 | 41.11597 | 28.75957 | 3235 ft | 168 kts | 359° |
| 2026-05-05 10:43 | 41.12743 | 28.75935 | 3002 ft | 166 kts | 359° |
| 2026-05-05 10:43 | 41.13904 | 28.75912 | 2788 ft | 167 kts | 360° |
| 2026-05-05 10:43 | 41.15036 | 28.75889 | 2556 ft | 159 kts | 360° |
| 2026-05-05 10:44 | 41.16140 | 28.75867 | 2350 ft | 160 kts | 360° |
| 2026-05-05 10:44 | 41.17257 | 28.75845 | 2132 ft | 159 kts | 359° |
| 2026-05-05 10:44 | 41.18355 | 28.75823 | 1929 ft | 154 kts | 0° |
| 2026-05-05 10:44 | 41.19392 | 28.75803 | 1705 ft | 144 kts | 360° |
| 2026-05-05 10:45 | 41.20373 | 28.75784 | 1494 ft | 140 kts | 0° |
| 2026-05-05 10:45 | 41.21359 | 28.75764 | 1327 ft | 144 kts | 0° |
| 2026-05-05 10:45 | 41.22362 | 28.75745 | 1146 ft | 143 kts | 0° |
| 2026-05-05 10:45 | 41.23358 | 28.75717 | 978 ft | 144 kts | 359° |
| 2026-05-05 10:46 | 41.24349 | 28.75686 | 751 ft | 139 kts | 359° |
| 2026-05-05 10:46 | 41.25276 | 28.75687 | 564 ft | 130 kts | 0° |
| 2026-05-05 10:46 | 41.26143 | 28.75678 | 388 ft | 117 kts | 356° |
| 2026-05-05 10:46 | 41.26892 | 28.75660 | 330 ft | 96 kts | 360° |
| 2026-05-05 10:47 | 41.27421 | 28.75647 | 330 ft | 49 kts | 359° |
| 2026-05-05 10:47 | 41.27606 | 28.75629 | 331 ft | 15 kts | 328° |
| 2026-05-05 10:47 | 41.27632 | 28.75541 | 333 ft | 2 kts | 267° |
| 2026-05-05 10:47 | 41.27631 | 28.75512 | 332 ft | 5 kts | 265° |
| 2026-05-05 10:48 | 41.27627 | 28.75453 | 333 ft | 7 kts | 266° |
| 2026-05-05 10:48 | 41.27620 | 28.75385 | 331 ft | 7 kts | 246° |
| 2026-05-05 10:48 | 41.27576 | 28.75361 | 331 ft | 7 kts | 180° |
| 2026-05-05 10:48 | 41.27528 | 28.75361 | 331 ft | 7 kts | 180° |
| 2026-05-05 10:49 | 41.27477 | 28.75361 | 333 ft | 7 kts | 178° |
| 2026-05-05 10:49 | 41.27419 | 28.75363 | 330 ft | 10 kts | 179° |
| 2026-05-05 10:49 | 41.27332 | 28.75366 | 330 ft | 14 kts | 178° |
| 2026-05-05 10:49 | 41.27239 | 28.75369 | 332 ft | 11 kts | 179° |
| 2026-05-05 10:50 | 41.27165 | 28.75371 | 329 ft | 11 kts | 179° |
| 2026-05-05 10:50 | 41.27092 | 28.75372 | 330 ft | 10 kts | 180° |
| 2026-05-05 10:50 | 41.27025 | 28.75371 | 331 ft | 9 kts | 181° |
| 2026-05-05 10:50 | 41.26966 | 28.75370 | 332 ft | 9 kts | 179° |
| 2026-05-05 10:51 | 41.26907 | 28.75367 | 331 ft | 8 kts | 201° |
| 2026-05-05 10:51 | 41.26892 | 28.75299 | 333 ft | 8 kts | 272° |
| 2026-05-05 10:51 | 41.26894 | 28.75224 | 333 ft | 8 kts | 270° |
| 2026-05-05 10:51 | 41.26874 | 28.75160 | 332 ft | 8 kts | 213° |
| 2026-05-05 10:52 | 41.26822 | 28.75152 | 332 ft | 8 kts | 179° |
| 2026-05-05 10:52 | 41.26760 | 28.75153 | 331 ft | 11 kts | 179° |
| 2026-05-05 10:52 | 41.26684 | 28.75156 | 329 ft | 11 kts | 179° |
| 2026-05-05 10:52 | 41.26610 | 28.75136 | 333 ft | 11 kts | 199° |
| 2026-05-05 10:53 | 41.26544 | 28.75109 | 329 ft | 5 kts | 197° |
| 2026-05-05 10:53 | 41.26508 | 28.75094 | 333 ft | 5 kts | 197° |
| 2026-05-05 10:53 | 41.26473 | 28.75079 | 331 ft | 5 kts | 198° |
| 2026-05-05 10:53 | 41.26438 | 28.75065 | 333 ft | 6 kts | 195° |
| 2026-05-05 10:54 | 41.26398 | 28.75050 | 333 ft | 5 kts | 196° |
| 2026-05-05 10:54 | 41.26371 | 28.75023 | 331 ft | 5 kts | 249° |
| 2026-05-05 10:54 | 41.26375 | 28.74975 | 331 ft | 5 kts | 284° |
| 2026-05-05 10:54 | 41.26386 | 28.74926 | 332 ft | 5 kts | 287° |
| 2026-05-05 10:55 | 41.26389 | 28.74912 | 331 ft | 0 kts | 288° |